Time;durP1;ratioP1;P1;durP2;ratioP2;P2;SDS_P1;SDS_P2;PMS_P1;PMS_P2;Temp;Humidity;BMP_temperature;BMP_pressure;BME280_temperature;BME280_humidity;BME280_pressure;Samples;Min_cycle;Max_cycle;Signal;HPM_P1;HPM_P2
2020/12/05 00:01:54;;;;;;;1.63;1.33;;;7.90;92.20;;;;;;5056456;28;20185;-56
2020/12/05 00:04:20;;;;;;;2.60;1.50;;;7.90;92.50;;;;;;5054753;28;20175;-59
2020/12/05 00:06:45;;;;;;;1.50;1.40;;;9.40;93.20;;;;;;5037261;28;20658;-54
2020/12/05 00:09:11;;;;;;;1.70;1.60;;;7.80;92.50;;;;;;5058953;28;20182;-53
2020/12/05 00:11:37;;;;;;;3.93;1.60;;;7.80;92.80;;;;;;5068420;28;20198;-57
2020/12/05 00:14:03;;;;;;;1.50;1.40;;;7.80;92.90;;;;;;5068720;28;20522;-54
2020/12/05 00:16:29;;;;;;;1.70;1.60;;;7.90;93.00;;;;;;5055370;28;20297;-55
2020/12/05 00:18:54;;;;;;;6.67;1.73;;;7.80;93.00;;;;;;5055839;28;20182;-53
2020/12/05 00:21:24;;;;;;;1.63;1.43;;;7.80;93.20;;;;;;5055402;28;20178;-58
2020/12/05 00:23:51;;;;;;;1.60;1.50;;;7.80;93.30;;;;;;5060916;28;20248;-57
2020/12/05 00:26:18;;;;;;;1.87;1.40;;;7.80;93.40;;;;;;5057111;28;20686;-56
2020/12/05 00:28:44;;;;;;;1.77;1.67;;;7.90;93.50;;;;;;5062344;28;20242;-54
2020/12/05 00:31:12;;;;;;;4.87;1.60;;;7.90;93.60;;;;;;5057991;28;20207;-53
2020/12/05 00:33:37;;;;;;;1.83;1.37;;;7.90;93.80;;;;;;5057353;28;20183;-58
2020/12/05 00:36:03;;;;;;;1.73;1.30;;;7.90;93.50;;;;;;5072676;28;20228;-57
2020/12/05 00:38:29;;;;;;;1.50;1.40;;;8.00;93.60;;;;;;5057631;28;20547;-53
2020/12/05 00:40:55;;;;;;;2.93;1.40;;;8.00;93.60;;;;;;5063869;28;20182;-53
2020/12/05 00:43:21;;;;;;;1.60;1.50;;;8.00;93.60;;;;;;5070169;28;20589;-54
2020/12/05 00:45:46;;;;;;;1.60;1.50;;;8.00;93.60;;;;;;5068655;28;20666;-53
2020/12/05 00:48:12;;;;;;;1.43;1.33;;;8.00;93.60;;;;;;5063890;28;20191;-57
2020/12/05 00:50:37;;;;;;;1.60;1.50;;;8.10;93.70;;;;;;5069650;28;20647;-57
2020/12/05 00:53:03;;;;;;;2.10;1.60;;;8.10;93.70;;;;;;5060025;28;20221;-59
2020/12/05 00:55:28;;;;;;;1.87;1.47;;;8.10;93.80;;;;;;5059844;28;20168;-59
2020/12/05 00:57:54;;;;;;;1.50;1.40;;;8.20;93.80;;;;;;5052632;28;20242;-54
2020/12/05 01:00:19;;;;;;;2.40;1.70;;;8.20;93.80;;;;;;5046577;28;20195;-53
2020/12/05 01:02:48;;;;;;;1.73;1.43;;;8.20;93.80;;;;;;5046218;28;20207;-56
2020/12/05 01:05:15;;;;;;;1.57;1.40;;;8.20;93.90;;;;;;5057727;28;20215;-59
2020/12/05 01:07:40;;;;;;;1.47;1.37;;;8.20;94.00;;;;;;5072195;28;20225;-58
2020/12/05 01:10:06;;;;;;;1.40;1.30;;;8.20;94.10;;;;;;5060381;28;20174;-56
2020/12/05 01:12:33;;;;;;;2.07;1.50;;;8.20;94.20;;;;;;5075167;28;20189;-57
2020/12/05 01:15:01;;;;;;;1.53;1.43;;;8.20;94.20;;;;;;5063694;28;20614;-56
2020/12/05 01:17:28;;;;;;;2.10;1.53;;;8.20;94.20;;;;;;5069952;28;20207;-57
2020/12/05 01:19:56;;;;;;;1.60;1.50;;;8.20;94.20;;;;;;5073787;28;20214;-53
2020/12/05 01:22:22;;;;;;;1.97;1.77;;;8.20;94.30;;;;;;5068613;28;20302;-57
2020/12/05 01:24:48;;;;;;;1.93;1.73;;;8.20;94.40;;;;;;5035985;28;20199;-54
2020/12/05 01:27:13;;;;;;;1.63;1.40;;;8.20;94.40;;;;;;5036551;28;20203;-56
2020/12/05 01:29:39;;;;;;;1.37;1.27;;;8.20;94.40;;;;;;5036438;28;20619;-58
2020/12/05 01:32:04;;;;;;;2.50;1.47;;;8.30;94.50;;;;;;5045939;28;20175;-55
2020/12/05 01:34:30;;;;;;;1.40;1.30;;;8.20;94.50;;;;;;5044667;28;20180;-55
2020/12/05 01:36:55;;;;;;;1.43;1.30;;;8.30;94.60;;;;;;5045358;28;20211;-59
2020/12/05 01:39:21;;;;;;;1.47;1.37;;;8.30;94.70;;;;;;5044646;28;20171;-55
2020/12/05 01:41:47;;;;;;;1.90;1.60;;;8.30;94.70;;;;;;5045893;28;20250;-58
2020/12/05 01:44:12;;;;;;;1.43;1.30;;;8.30;94.70;;;;;;5046444;28;20604;-56
2020/12/05 01:46:40;;;;;;;1.10;1.10;;;8.30;94.80;;;;;;5042379;28;20659;-59
2020/12/05 01:49:07;;;;;;;1.60;1.50;;;8.40;94.70;;;;;;5033282;28;20221;-57
2020/12/05 01:51:35;;;;;;;1.27;1.17;;;8.40;94.70;;;;;;5033599;28;20191;-57
2020/12/05 01:54:01;;;;;;;1.50;1.40;;;8.40;94.70;;;;;;5033652;28;20532;-59
2020/12/05 01:56:27;;;;;;;2.83;1.20;;;8.40;94.70;;;;;;5031474;28;20199;-54
2020/12/05 01:58:53;;;;;;;1.43;1.33;;;8.40;94.70;;;;;;5032860;28;20214;-56
2020/12/05 02:01:24;;;;;;;1.30;1.20;;;8.40;94.80;;;;;;5032832;28;20241;-52
2020/12/05 02:04:08;;;;;;;1.20;1.10;;;8.40;95.10;;;;;;5033227;28;20564;-59
2020/12/05 02:06:53;;;;;;;2.90;1.50;;;8.40;94.90;;;;;;5034930;28;20678;-57
2020/12/05 02:09:24;;;;;;;1.43;1.33;;;8.40;94.90;;;;;;5036302;28;20192;-57
2020/12/05 02:12:28;;;;;;;2.23;1.50;;;8.40;94.90;;;;;;5036848;28;20223;-56
2020/12/05 02:15:01;;;;;;;1.30;1.20;;;8.40;95.00;;;;;;4998651;28;20189;-57
2020/12/05 02:17:28;;;;;;;3.70;1.43;;;8.50;95.10;;;;;;4998591;28;20267;-59
2020/12/05 02:19:55;;;;;;;1.97;1.50;;;8.50;95.10;;;;;;4997340;28;20189;-56
2020/12/05 02:22:34;;;;;;;1.20;1.10;;;8.50;95.00;;;;;;4999119;28;20654;-57
2020/12/05 02:25:02;;;;;;;1.57;1.47;;;8.60;95.10;;;;;;4996909;28;20224;-57
2020/12/05 02:27:32;;;;;;;1.10;1.10;;;8.60;95.10;;;;;;4997523;28;20192;-54
2020/12/05 02:29:57;;;;;;;3.10;1.40;;;8.60;95.00;;;;;;5024228;28;20194;-55
2020/12/05 02:32:23;;;;;;;1.30;1.20;;;8.60;95.10;;;;;;5036381;28;20191;-58
2020/12/05 02:34:48;;;;;;;1.50;1.40;;;8.60;95.00;;;;;;5036845;28;20203;-59
2020/12/05 02:37:18;;;;;;;1.30;1.10;;;8.60;95.10;;;;;;5036587;28;20227;-58
2020/12/05 02:39:45;;;;;;;1.07;1.00;;;8.70;95.20;;;;;;5035340;28;20176;-57
2020/12/05 02:42:14;;;;;;;1.23;1.13;;;8.70;95.20;;;;;;5035682;28;20636;-55
2020/12/05 02:44:53;;;;;;;1.53;1.20;;;8.60;95.20;;;;;;5035030;28;20218;-57
2020/12/05 02:47:20;;;;;;;1.23;1.13;;;8.70;95.20;;;;;;5034988;28;20221;-58
2020/12/05 02:49:47;;;;;;;1.27;1.17;;;8.70;95.30;;;;;;5035876;28;20175;-55
2020/12/05 02:52:13;;;;;;;1.40;1.30;;;8.70;95.20;;;;;;5053170;28;20221;-59
2020/12/05 02:54:39;;;;;;;1.17;1.07;;;8.70;95.30;;;;;;5057857;28;20171;-58
2020/12/05 02:57:05;;;;;;;1.47;1.37;;;8.70;95.20;;;;;;5057484;28;20722;-56
2020/12/05 02:59:31;;;;;;;1.23;1.13;;;8.70;95.30;;;;;;5059648;28;20185;-58
2020/12/05 03:01:58;;;;;;;1.30;1.20;;;8.70;95.30;;;;;;5056892;28;20179;-57
2020/12/05 03:04:23;;;;;;;1.17;1.00;;;8.80;95.40;;;;;;5056715;28;20171;-57
2020/12/05 03:06:49;;;;;;;1.30;1.20;;;8.80;95.40;;;;;;5057995;28;20611;-56
2020/12/05 03:09:15;;;;;;;1.40;1.30;;;8.80;95.40;;;;;;5057577;28;20175;-52
2020/12/05 03:11:41;;;;;;;1.30;1.20;;;8.80;95.40;;;;;;5058786;28;20187;-55
2020/12/05 03:14:07;;;;;;;2.67;1.20;;;8.90;95.30;;;;;;5059498;28;20175;-56
2020/12/05 03:16:32;;;;;;;1.90;1.13;;;8.90;95.40;;;;;;5056928;28;20191;-56
2020/12/05 03:18:58;;;;;;;1.63;1.00;;;8.90;95.40;;;;;;5056868;28;20619;-58
2020/12/05 03:21:24;;;;;;;1.03;0.93;;;8.90;95.40;;;;;;5056009;28;20175;-55
2020/12/05 03:23:49;;;;;;;1.10;1.10;;;8.90;95.30;;;;;;5057928;28;20187;-59
2020/12/05 03:26:15;;;;;;;1.90;1.20;;;9.00;95.40;;;;;;5057249;28;20199;-60
2020/12/05 03:28:42;;;;;;;2.30;1.20;;;9.00;95.40;;;;;;5058604;28;20655;-58
2020/12/05 03:31:10;;;;;;;1.10;1.00;;;9.10;95.40;;;;;;5058246;28;20206;-57
2020/12/05 03:33:37;;;;;;;0.90;0.90;;;9.10;95.40;;;;;;5057239;28;20175;-56
2020/12/05 03:36:02;;;;;;;1.00;0.90;;;9.10;95.40;;;;;;5059600;28;20182;-56
2020/12/05 03:38:28;;;;;;;1.60;1.30;;;9.20;95.20;;;;;;5059660;28;20538;-54
2020/12/05 03:40:53;;;;;;;1.43;1.10;;;9.20;95.40;;;;;;5057011;28;20222;-59
2020/12/05 03:43:19;;;;;;;1.00;1.00;;;9.20;95.40;;;;;;5056147;28;20183;-59
2020/12/05 03:45:44;;;;;;;1.10;1.10;;;10.30;95.30;;;;;;5058630;28;20669;-59
2020/12/05 03:48:12;;;;;;;1.07;1.07;;;9.30;95.30;;;;;;5056190;28;20195;-54
2020/12/05 03:50:38;;;;;;;1.53;1.20;;;9.30;95.30;;;;;;5058324;28;20186;-56
2020/12/05 03:53:04;;;;;;;1.17;1.07;;;9.30;95.30;;;;;;5056030;28;20172;-59
2020/12/05 03:55:29;;;;;;;1.00;1.00;;;9.30;95.30;;;;;;5056857;28;20202;-59
2020/12/05 03:57:55;;;;;;;1.73;1.20;;;9.30;95.20;;;;;;5056324;28;20187;-56
2020/12/05 04:00:20;;;;;;;1.33;1.23;;;9.30;95.30;;;;;;5056351;28;20172;-54
2020/12/05 04:02:46;;;;;;;1.00;1.00;;;9.30;95.20;;;;;;5056336;28;20228;-57
2020/12/05 04:05:12;;;;;;;1.20;1.10;;;9.30;95.30;;;;;;5058817;28;20252;-57
2020/12/05 04:07:37;;;;;;;1.10;1.00;;;9.30;95.30;;;;;;5056469;28;20270;-58
2020/12/05 04:10:03;;;;;;;1.07;1.00;;;9.30;95.30;;;;;;5056749;28;20175;-57
2020/12/05 04:12:29;;;;;;;3.30;1.37;;;9.30;95.20;;;;;;5056771;28;20660;-59
2020/12/05 04:14:54;;;;;;;1.40;1.30;;;9.30;95.30;;;;;;5055878;28;20265;-59
2020/12/05 04:17:20;;;;;;;1.00;1.00;;;9.40;95.40;;;;;;5056120;28;20193;-57
2020/12/05 04:19:47;;;;;;;1.23;1.13;;;9.40;95.30;;;;;;5055784;28;20250;-58
2020/12/05 04:22:13;;;;;;;1.27;1.20;;;9.30;95.30;;;;;;5056023;28;20669;-57
2020/12/05 04:24:38;;;;;;;2.03;1.13;;;9.40;95.30;;;;;;5038016;28;20179;-54
2020/12/05 04:27:04;;;;;;;1.20;1.10;;;9.40;95.30;;;;;;5056529;28;20194;-56
2020/12/05 04:29:29;;;;;;;1.90;1.20;;;9.40;95.30;;;;;;5055837;28;20185;-58
2020/12/05 04:31:55;;;;;;;1.23;1.13;;;9.40;95.20;;;;;;5056120;28;20309;-59
2020/12/05 04:34:20;;;;;;;1.33;1.20;;;9.40;95.30;;;;;;5054626;28;20206;-59
2020/12/05 04:36:46;;;;;;;1.07;1.03;;;9.40;95.20;;;;;;5055510;28;20195;-55
2020/12/05 04:39:12;;;;;;;1.40;1.30;;;9.40;95.40;;;;;;5056874;28;20515;-56
2020/12/05 04:41:40;;;;;;;1.33;1.23;;;9.50;95.20;;;;;;5055718;28;20182;-58
2020/12/05 04:44:05;;;;;;;1.27;1.17;;;9.40;95.10;;;;;;5057642;28;20250;-57
2020/12/05 04:46:32;;;;;;;1.17;1.07;;;9.50;95.30;;;;;;5055761;28;20242;-58
2020/12/05 04:49:00;;;;;;;1.20;1.10;;;9.50;95.10;;;;;;5056638;28;20631;-56
2020/12/05 04:51:33;;;;;;;1.90;1.10;;;9.60;95.20;;;;;;5057347;28;20198;-59
2020/12/05 04:54:01;;;;;;;1.10;1.00;;;9.60;95.30;;;;;;5056292;28;20266;-58
2020/12/05 04:56:35;;;;;;;2.20;1.17;;;9.60;94.80;;;;;;5047737;28;20200;-55
2020/12/05 04:59:06;;;;;;;1.60;1.13;;;9.70;94.80;;;;;;5036996;28;20182;-55
2020/12/05 05:01:37;;;;;;;1.20;1.10;;;9.70;94.90;;;;;;5035492;28;20555;-55
2020/12/05 05:04:04;;;;;;;1.10;1.10;;;9.80;94.80;;;;;;5035359;28;20194;-57
2020/12/05 05:06:30;;;;;;;0.87;0.87;;;9.80;94.70;;;;;;5035146;28;20211;-58
2020/12/05 05:08:57;;;;;;;1.20;1.10;;;9.80;94.80;;;;;;5037503;28;20241;-59
2020/12/05 05:11:25;;;;;;;1.30;1.20;;;9.80;94.90;;;;;;5036526;28;20200;-54
2020/12/05 05:13:59;;;;;;;1.30;1.20;;;9.80;94.60;;;;;;5036564;28;20215;-56
2020/12/05 05:16:28;;;;;;;1.97;1.03;;;9.80;94.60;;;;;;5035043;28;20207;-54
2020/12/05 05:18:54;;;;;;;1.20;1.03;;;9.80;94.50;;;;;;5034203;28;20627;-58
2020/12/05 05:21:36;;;;;;;1.83;1.30;;;9.80;94.50;;;;;;5035591;28;20186;-54
2020/12/05 05:24:19;;;;;;;1.20;1.10;;;9.80;94.50;;;;;;5035149;28;20309;-57
2020/12/05 05:27:04;;;;;;;0.83;0.83;;;9.70;94.50;;;;;;5038541;28;20210;-55
2020/12/05 05:29:36;;;;;;;1.00;1.00;;;9.80;94.60;;;;;;5035760;28;20179;-53
2020/12/05 05:32:18;;;;;;;1.30;1.20;;;9.80;94.60;;;;;;5034431;28;20164;-57
2020/12/05 05:34:46;;;;;;;1.23;1.00;;;9.80;94.40;;;;;;5036929;28;20176;-55
2020/12/05 05:37:19;;;;;;;1.03;1.00;;;9.80;94.50;;;;;;5034150;28;20199;-60
2020/12/05 05:39:51;;;;;;;1.10;1.00;;;9.80;94.80;;;;;;5034373;28;20175;-54
2020/12/05 05:42:36;;;;;;;1.20;1.10;;;9.70;94.40;;;;;;5035298;28;20187;-53
2020/12/05 05:45:34;;;;;;;1.17;1.17;;;9.60;94.50;;;;;;5035079;28;20275;-57
2020/12/05 05:48:02;;;;;;;1.30;1.20;;;9.50;94.90;;;;;;4974186;28;20205;-53
2020/12/05 05:50:33;;;;;;;0.93;0.93;;;9.50;94.90;;;;;;4975547;28;20190;-59
2020/12/05 05:53:03;;;;;;;1.00;1.00;;;9.50;94.90;;;;;;4974682;28;20634;-56
2020/12/05 05:55:46;;;;;;;1.37;1.20;;;9.50;94.90;;;;;;4974832;28;20173;-57
2020/12/05 05:58:13;;;;;;;1.00;1.00;;;9.50;94.80;;;;;;4974064;28;20206;-55
2020/12/05 06:00:40;;;;;;;1.03;1.03;;;9.50;94.80;;;;;;4956826;28;20645;-59
2020/12/05 06:03:21;;;;;;;1.20;1.20;;;9.50;94.90;;;;;;4973688;28;20593;-57
2020/12/05 06:05:56;;;;;;;1.47;1.30;;;9.40;94.90;;;;;;4975629;28;20349;-55
2020/12/05 06:08:26;;;;;;;1.57;1.47;;;9.40;95.00;;;;;;4973501;28;20681;-54
2020/12/05 06:10:56;;;;;;;3.80;3.50;;;9.30;95.10;;;;;;4973568;28;20206;-57
2020/12/05 06:13:25;;;;;;;1.37;1.27;;;9.40;95.10;;;;;;4973016;28;20677;-54
2020/12/05 06:15:51;;;;;;;1.50;1.40;;;9.40;95.50;;;;;;4973297;28;20182;-59
2020/12/05 06:18:17;;;;;;;1.20;1.10;;;9.30;95.20;;;;;;4974818;28;20205;-56
2020/12/05 06:20:46;;;;;;;2.10;1.20;;;9.40;95.20;;;;;;4972814;28;20705;-54
2020/12/05 06:23:29;;;;;;;1.27;1.17;;;9.40;95.10;;;;;;4994051;28;20636;-54
2020/12/05 06:25:56;;;;;;;9.70;8.77;;;9.50;94.90;;;;;;5033317;28;20211;-59
2020/12/05 06:28:23;;;;;;;2.63;2.43;;;9.50;94.80;;;;;;5034135;28;20192;-58
2020/12/05 06:30:50;;;;;;;3.00;2.80;;;9.60;94.80;;;;;;5034544;28;20161;-53
2020/12/05 06:33:41;;;;;;;1.67;1.57;;;9.70;94.70;;;;;;5034643;28;20199;-59
2020/12/05 06:36:27;;;;;;;1.23;1.13;;;9.70;94.70;;;;;;5034087;28;20259;-59
2020/12/05 06:39:08;;;;;;;1.40;1.10;;;9.60;94.50;;;;;;4973176;28;20305;-58
2020/12/05 06:41:35;;;;;;;1.43;1.33;;;9.60;94.70;;;;;;4972972;28;20189;-56
2020/12/05 06:44:13;;;;;;;1.73;1.20;;;9.50;94.60;;;;;;4974021;28;20225;-59
2020/12/05 06:46:52;;;;;;;1.53;1.43;;;9.50;94.60;;;;;;4973060;28;20221;-59
2020/12/05 06:49:36;;;;;;;2.70;1.67;;;8.90;95.40;;;;;;4973899;28;20705;-58
2020/12/05 06:52:26;;;;;;;3.03;1.70;;;8.40;96.80;;;;;;4972871;28;20178;-55
2020/12/05 06:54:55;;;;;;;2.13;1.80;;;8.10;97.20;;;;;;4972809;28;20634;-59
2020/12/05 06:57:25;;;;;;;3.17;1.90;;;7.90;97.80;;;;;;4975623;28;20208;-54
2020/12/05 06:59:51;;;;;;;1.63;1.53;;;7.80;98.30;;;;;;4976430;28;20614;-56
2020/12/05 07:02:30;;;;;;;2.63;2.17;;;7.80;98.30;;;;;;4983287;28;20197;-59
2020/12/05 07:05:20;;;;;;;2.07;1.90;;;7.70;98.50;;;;;;4996917;28;20258;-58
2020/12/05 07:07:57;;;;;;;3.30;1.73;;;7.50;98.60;;;;;;4996014;28;20633;-59
2020/12/05 07:10:48;;;;;;;1.97;1.80;;;7.50;99.00;;;;;;4997233;28;20189;-57
2020/12/05 07:13:35;;;;;;;2.20;2.00;;;7.50;99.30;;;;;;4996510;28;20177;-54
2020/12/05 07:16:24;;;;;;;2.03;1.90;;;7.50;99.40;;;;;;4987294;28;20191;-54
2020/12/05 07:19:00;;;;;;;1.97;1.80;;;7.60;99.30;;;;;;5014896;28;20235;-54
2020/12/05 07:21:28;;;;;;;2.00;1.83;;;7.70;99.30;;;;;;5015692;28;20204;-59
2020/12/05 07:23:54;;;;;;;2.10;1.90;;;7.70;99.20;;;;;;5015986;28;20260;-59
2020/12/05 07:26:19;;;;;;;2.10;1.87;;;7.70;99.20;;;;;;5015179;28;20192;-55
2020/12/05 07:28:47;;;;;;;1.97;1.77;;;7.60;99.30;;;;;;5015641;28;20176;-57
2020/12/05 07:31:14;;;;;;;2.20;2.00;;;7.60;99.40;;;;;;5015885;28;20184;-54
2020/12/05 07:33:41;;;;;;;2.50;2.30;;;7.60;99.40;;;;;;5014372;28;20208;-54
2020/12/05 07:36:09;;;;;;;3.60;2.70;;;7.50;99.70;;;;;;5014156;28;20176;-57
2020/12/05 07:38:39;;;;;;;3.27;2.60;;;7.60;99.70;;;;;;5014395;28;20172;-55
2020/12/05 07:41:09;;;;;;;2.30;2.07;;;7.70;99.50;;;;;;5014391;28;20227;-57
2020/12/05 07:43:35;;;;;;;2.37;2.17;;;7.70;99.50;;;;;;5015303;28;20625;-56
2020/12/05 07:46:05;;;;;;;2.03;1.87;;;8.00;99.40;;;;;;5014991;28;20250;-56
2020/12/05 07:48:31;;;;;;;1.80;1.50;;;9.00;98.90;;;;;;5015083;28;20568;-56
2020/12/05 07:50:57;;;;;;;2.00;1.80;;;10.30;96.20;;;;;;5014296;28;20173;-59
2020/12/05 07:53:25;;;;;;;1.80;1.70;;;11.50;94.90;;;;;;5041454;28;20539;-59
2020/12/05 07:55:51;;;;;;;3.33;2.03;;;12.70;92.90;;;;;;5056632;28;20191;-59
2020/12/05 07:58:17;;;;;;;1.93;1.80;;;13.30;91.40;;;;;;5056196;28;20204;-54
2020/12/05 08:00:43;;;;;;;2.73;1.70;;;13.50;90.90;;;;;;5057378;28;20175;-54
2020/12/05 08:03:41;;;;;;;1.70;1.60;;;13.60;90.50;;;;;;5057200;28;20171;-57
2020/12/05 08:06:15;;;;;;;1.70;1.60;;;14.40;90.20;;;;;;5056246;28;20223;-59
2020/12/05 08:08:50;;;;;;;2.63;1.83;;;14.80;87.90;;;;;;5054399;28;20229;-59
2020/12/05 08:11:16;;;;;;;2.17;1.97;;;15.00;85.80;;;;;;5056072;28;20195;-57
2020/12/05 08:13:42;;;;;;;2.20;2.00;;;15.00;84.30;;;;;;5056239;28;20179;-55
2020/12/05 08:16:08;;;;;;;2.23;2.03;;;14.50;83.90;;;;;;5055685;28;20155;-54
2020/12/05 08:18:36;;;;;;;4.27;2.37;;;13.30;85.50;;;;;;5055607;28;20273;-57
2020/12/05 08:21:04;;;;;;;3.70;2.23;;;11.90;88.70;;;;;;5055950;28;20641;-56
2020/12/05 08:23:35;;;;;;;3.60;2.60;;;10.70;90.90;;;;;;5055237;28;20646;-57
2020/12/05 08:26:14;;;;;;;2.60;2.40;;;9.80;93.00;;;;;;5055000;28;20234;-58
2020/12/05 08:28:41;;;;;;;3.57;2.90;;;9.20;93.90;;;;;;5056445;28;20174;-59
2020/12/05 08:31:09;;;;;;;3.20;2.90;;;9.10;94.60;;;;;;5056118;28;20177;-56
2020/12/05 08:33:47;;;;;;;3.30;2.83;;;9.20;94.60;;;;;;5056371;28;20623;-59
2020/12/05 08:36:19;;;;;;;3.70;3.30;;;9.10;94.60;;;;;;5057405;28;20193;-56
2020/12/05 08:38:46;;;;;;;4.90;3.33;;;9.00;95.00;;;;;;5055209;28;20186;-54
2020/12/05 08:41:12;;;;;;;5.37;4.10;;;9.30;95.00;;;;;;5055946;28;20190;-55
2020/12/05 08:43:37;;;;;;;6.57;4.17;;;10.20;94.10;;;;;;5059361;28;20523;-59
2020/12/05 08:46:22;;;;;;;5.20;4.17;;;10.90;92.60;;;;;;5055704;28;20702;-55
2020/12/05 08:48:49;;;;;;;4.53;3.87;;;10.90;91.40;;;;;;5056194;28;20191;-57
2020/12/05 08:51:16;;;;;;;5.17;4.30;;;10.40;91.70;;;;;;5055889;28;20623;-54
2020/12/05 08:53:43;;;;;;;5.07;3.87;;;9.90;93.10;;;;;;5057122;28;20186;-58
2020/12/05 08:56:18;;;;;;;5.03;4.13;;;10.80;93.00;;;;;;5055983;28;20174;-54
2020/12/05 08:58:47;;;;;;;7.50;5.00;;;12.10;91.60;;;;;;5057641;28;20166;-59
2020/12/05 09:01:14;;;;;;;6.03;5.33;;;11.70;91.70;;;;;;5055187;28;20171;-56
2020/12/05 09:03:40;;;;;;;6.33;5.30;;;9.90;92.20;;;;;;5055286;28;20182;-56
2020/12/05 09:06:07;;;;;;;7.23;5.30;;;10.10;92.50;;;;;;5055416;28;20245;-57
2020/12/05 09:08:33;;;;;;;6.43;5.57;;;11.00;91.90;;;;;;5056185;28;20211;-55
2020/12/05 09:10:59;;;;;;;6.73;5.60;;;11.80;90.40;;;;;;5055567;28;20191;-59
2020/12/05 09:13:24;;;;;;;7.03;6.27;;;12.40;90.10;;;;;;5055633;28;20175;-53
2020/12/05 09:15:58;;;;;;;8.10;6.83;;;13.50;85.30;;;;;;5054650;28;20175;-59
2020/12/05 09:18:24;;;;;;;8.97;6.93;;;13.40;84.90;;;;;;5054054;28;20198;-53
2020/12/05 09:20:49;;;;;;;8.23;7.13;;;12.60;85.60;;;;;;5055761;28;20180;-59
2020/12/05 09:23:25;;;;;;;10.23;8.63;;;11.70;86.50;;;;;;5054970;28;20531;-59
2020/12/05 09:26:01;;;;;;;10.37;9.00;;;10.30;89.10;;;;;;5056270;28;20240;-59
2020/12/05 09:28:26;;;;;;;10.73;9.00;;;9.30;92.20;;;;;;5056339;28;20256;-59
2020/12/05 09:30:52;;;;;;;12.47;9.93;;;8.90;92.40;;;;;;5035352;28;20542;-56
2020/12/05 09:33:18;;;;;;;13.30;10.13;;;8.80;93.90;;;;;;5034777;28;20185;-53
2020/12/05 09:35:45;;;;;;;12.20;10.03;;;8.70;92.80;;;;;;5035787;28;20608;-56
2020/12/05 09:38:11;;;;;;;12.17;9.90;;;8.40;93.70;;;;;;5035908;28;20199;-55
2020/12/05 09:40:36;;;;;;;17.23;11.13;;;8.10;94.80;;;;;;5034804;28;20245;-57
2020/12/05 09:43:03;;;;;;;13.57;11.13;;;8.00;94.60;;;;;;5035882;28;20200;-56
2020/12/05 09:45:28;;;;;;;14.73;11.97;;;7.50;94.60;;;;;;5033804;28;20187;-57
2020/12/05 09:47:55;;;;;;;14.03;11.40;;;7.30;95.60;;;;;;5034528;28;20202;-58
2020/12/05 09:50:21;;;;;;;15.63;11.70;;;7.70;95.40;;;;;;5035406;28;20171;-57
2020/12/05 09:52:47;;;;;;;13.27;11.37;;;7.90;94.40;;;;;;5034240;28;20247;-59
2020/12/05 09:55:13;;;;;;;15.03;12.47;;;7.90;94.90;;;;;;5037503;28;20282;-57
2020/12/05 09:57:40;;;;;;;16.00;11.87;;;7.90;94.20;;;;;;5053768;28;20198;-54
2020/12/05 10:00:10;;;;;;;14.37;11.73;;;7.70;94.70;;;;;;5054473;28;20240;-59
2020/12/05 10:02:40;;;;;;;15.03;12.30;;;7.60;94.80;;;;;;5054113;28;20178;-59
2020/12/05 10:05:08;;;;;;;20.50;13.47;;;7.50;95.20;;;;;;5053364;28;20273;-53
2020/12/05 10:07:34;;;;;;;15.83;12.60;;;7.10;95.30;;;;;;5057026;28;20209;-57
2020/12/05 10:10:00;;;;;;;17.00;13.07;;;6.90;96.40;;;;;;5055940;28;20565;-58
2020/12/05 10:12:25;;;;;;;16.57;12.87;;;6.90;97.00;;;;;;5054554;28;20278;-57
2020/12/05 10:14:51;;;;;;;14.67;12.57;;;6.80;96.00;;;;;;5053283;28;20270;-57
2020/12/05 10:17:17;;;;;;;14.67;11.70;;;6.80;97.00;;;;;;5019015;28;20203;-56
2020/12/05 10:19:42;;;;;;;15.77;12.20;;;6.80;97.40;;;;;;5054120;28;20179;-59
2020/12/05 10:22:08;;;;;;;20.23;13.43;;;7.20;97.30;;;;;;5053465;28;20178;-56
2020/12/05 10:24:33;;;;;;;14.30;12.10;;;7.60;95.70;;;;;;5054598;28;20677;-59
2020/12/05 10:26:59;;;;;;;14.30;11.30;;;8.20;95.40;;;;;;5054089;28;20690;-54
2020/12/05 10:29:25;;;;;;;14.77;11.87;;;8.80;94.40;;;;;;5053556;28;20254;-58
2020/12/05 10:31:53;;;;;;;16.80;11.77;;;9.20;93.80;;;;;;5054931;28;20206;-55
2020/12/05 10:34:19;;;;;;;15.53;13.03;;;9.10;93.90;;;;;;5057398;28;20174;-56
2020/12/05 10:36:46;;;;;;;14.87;12.47;;;9.00;93.70;;;;;;5060068;28;20253;-57
2020/12/05 10:39:13;;;;;;;15.37;13.03;;;9.00;93.80;;;;;;5058983;28;20171;-57
2020/12/05 10:41:38;;;;;;;13.73;11.70;;;9.20;93.30;;;;;;5058659;28;20492;-57
2020/12/05 10:44:04;;;;;;;14.27;11.80;;;9.00;93.20;;;;;;5058363;28;20704;-56
2020/12/05 10:46:30;;;;;;;15.87;12.20;;;9.30;92.80;;;;;;5057503;28;20207;-58
2020/12/05 10:48:56;;;;;;;16.03;12.87;;;9.50;92.50;;;;;;5059274;28;20175;-55
2020/12/05 10:51:21;;;;;;;14.63;11.67;;;10.30;92.00;;;;;;5058404;28;20623;-59
2020/12/05 10:53:47;;;;;;;14.77;11.40;;;11.20;91.10;;;;;;5058686;28;20686;-58
2020/12/05 10:56:12;;;;;;;13.97;12.40;;;11.60;89.80;;;;;;5057169;28;20172;-56
2020/12/05 10:58:38;;;;;;;14.87;12.10;;;11.40;88.00;;;;;;5057719;28;20183;-58
2020/12/05 11:01:04;;;;;;;16.47;12.53;;;11.00;88.80;;;;;;5058464;28;20183;-59
2020/12/05 11:03:29;;;;;;;14.63;12.37;;;11.80;89.90;;;;;;5057572;28;20262;-56
2020/12/05 11:05:55;;;;;;;12.97;11.20;;;11.70;90.10;;;;;;5057042;28;20201;-59
2020/12/05 11:08:20;;;;;;;13.30;11.67;;;14.10;88.50;;;;;;5057807;28;20539;-56
2020/12/05 11:10:46;;;;;;;12.70;11.33;;;15.80;80.40;;;;;;5057404;28;20172;-59
2020/12/05 11:13:12;;;;;;;15.80;11.80;;;17.40;74.80;;;;;;5056938;28;20190;-59
2020/12/05 11:15:38;;;;;;;12.87;11.57;;;19.30;69.20;;;;;;5057813;28;20176;-55
2020/12/05 11:18:04;;;;;;;13.37;11.97;;;19.40;65.10;;;;;;5056696;28;20194;-58
2020/12/05 11:20:30;;;;;;;14.27;11.83;;;17.80;65.70;;;;;;5059023;28;20175;-59
2020/12/05 11:22:55;;;;;;;13.53;12.13;;;16.30;70.40;;;;;;5057082;28;20207;-56
2020/12/05 11:25:21;;;;;;;13.67;12.27;;;16.20;71.10;;;;;;5056637;28;20231;-54
2020/12/05 11:27:46;;;;;;;12.63;11.43;;;16.50;71.00;;;;;;5059336;28;20237;-57
2020/12/05 11:30:12;;;;;;;13.33;11.93;;;17.10;70.90;;;;;;5060697;28;20673;-53
2020/12/05 11:32:38;;;;;;;14.27;12.77;;;17.30;68.70;;;;;;5058684;28;20258;-54
2020/12/05 11:35:05;;;;;;;14.50;13.00;;;17.20;67.30;;;;;;5051854;28;20549;-52
2020/12/05 11:37:31;;;;;;;15.67;12.43;;;16.40;68.00;;;;;;5036917;28;20227;-55
2020/12/05 11:39:56;;;;;;;17.93;13.20;;;15.40;72.60;;;;;;5037529;28;20178;-55
2020/12/05 11:42:22;;;;;;;14.60;13.10;;;14.70;72.40;;;;;;5037058;28;20738;-56
2020/12/05 11:44:48;;;;;;;14.90;12.63;;;14.00;74.20;;;;;;5034086;28;20191;-59
2020/12/05 11:47:13;;;;;;;14.23;12.07;;;13.50;75.50;;;;;;5035467;28;20197;-55
2020/12/05 11:49:39;;;;;;;13.03;11.63;;;14.00;78.00;;;;;;5041252;28;20173;-55
2020/12/05 11:52:04;;;;;;;14.03;12.50;;;15.90;74.40;;;;;;5054928;28;20202;-58
2020/12/05 11:54:30;;;;;;;13.70;12.30;;;17.60;70.30;;;;;;5053578;28;20211;-59
2020/12/05 11:56:55;;;;;;;14.33;12.90;;;19.20;67.80;;;;;;5053623;28;20283;-59
2020/12/05 11:59:21;;;;;;;14.63;13.13;;;19.70;62.40;;;;;;5054598;28;20178;-58
2020/12/05 12:01:46;;;;;;;14.33;12.57;;;19.00;62.00;;;;;;5052081;28;20189;-56
2020/12/05 12:04:12;;;;;;;14.23;12.73;;;18.20;65.30;;;;;;5053329;28;20229;-57
2020/12/05 12:06:37;;;;;;;15.20;13.50;;;17.40;65.20;;;;;;5053220;28;20197;-57
2020/12/05 12:09:06;;;;;;;14.80;13.23;;;16.50;67.10;;;;;;5054973;28;20191;-56
2020/12/05 12:11:32;;;;;;;17.10;13.47;;;14.80;69.00;;;;;;5055580;28;20202;-58
2020/12/05 12:13:58;;;;;;;14.53;12.97;;;13.70;72.30;;;;;;5036461;28;20176;-55
2020/12/05 12:16:23;;;;;;;16.23;13.97;;;12.80;74.30;;;;;;5053349;28;20211;-59
2020/12/05 12:18:49;;;;;;;16.90;13.77;;;12.00;76.70;;;;;;5053437;28;20175;-58
2020/12/05 12:21:24;;;;;;;15.00;12.90;;;11.10;78.90;;;;;;5056278;28;20511;-57
2020/12/05 12:23:50;;;;;;;16.93;13.40;;;10.50;81.00;;;;;;5036159;28;20242;-57
2020/12/05 12:26:17;;;;;;;15.03;13.23;;;10.10;83.70;;;;;;5056263;28;20290;-54
2020/12/05 12:28:43;;;;;;;16.03;13.73;;;9.80;87.40;;;;;;5055019;28;20175;-57
2020/12/05 12:31:08;;;;;;;16.60;13.97;;;9.80;87.60;;;;;;5053826;28;20174;-56
2020/12/05 12:33:34;;;;;;;16.80;13.40;;;9.60;87.10;;;;;;5056241;28;20190;-58
2020/12/05 12:35:59;;;;;;;16.07;14.37;;;9.40;89.00;;;;;;5052915;28;20174;-58
2020/12/05 12:38:25;;;;;;;16.70;14.07;;;9.30;88.70;;;;;;5053690;28;20198;-55
2020/12/05 12:40:50;;;;;;;16.87;14.00;;;9.30;90.00;;;;;;5054404;28;20182;-55
2020/12/05 12:43:16;;;;;;;16.50;13.73;;;9.20;89.20;;;;;;5056258;28;20186;-55
2020/12/05 12:45:44;;;;;;;17.10;13.70;;;9.20;89.00;;;;;;5055174;28;20697;-57
2020/12/05 12:50:36;;;;;;;17.53;14.73;;;9.00;90.40;;;;;;5053575;28;20516;-55
2020/12/05 12:53:02;;;;;;;18.57;14.70;;;8.90;90.80;;;;;;5054209;28;20634;-58
2020/12/05 12:55:28;;;;;;;18.73;15.20;;;8.80;90.80;;;;;;5054909;28;20186;-55
2020/12/05 12:57:55;;;;;;;18.30;14.73;;;8.70;91.30;;;;;;5053130;28;20226;-56